Time;durP1;ratioP1;P1;durP2;ratioP2;P2;SDS_P1;SDS_P2;PMS_P1;PMS_P2;Temp;Humidity;BMP_temperature;BMP_pressure;BME280_temperature;BME280_humidity;BME280_pressure;Samples;Min_cycle;Max_cycle;Signal;HPM_P1;HPM_P2
2023/06/17 00:01:01;;;;;;;18.27;7.90;;;13.90;99.90;;;;;;4370727;28;655676;-72
2023/06/17 00:03:50;;;;;;;12.40;8.10;;;13.80;99.90;;;;;;4379072;28;655839;-72
2023/06/17 00:06:37;;;;;;;11.47;7.90;;;13.80;99.90;;;;;;4359340;28;656058;-72
2023/06/17 00:09:25;;;;;;;11.38;7.80;;;13.80;99.90;;;;;;4378595;28;655835;-72
2023/06/17 00:12:12;;;;;;;10.40;7.93;;;13.80;99.90;;;;;;4361056;28;656513;-72
2023/06/17 00:15:01;;;;;;;14.40;8.60;;;13.80;99.90;;;;;;4380214;28;655809;-72
2023/06/17 00:17:50;;;;;;;13.93;8.77;;;13.80;99.90;;;;;;4363271;28;656305;-71
2023/06/17 00:20:38;;;;;;;14.10;8.57;;;13.80;99.90;;;;;;4356424;28;657335;-72
2023/06/17 00:23:26;;;;;;;15.67;8.87;;;13.70;99.90;;;;;;4363257;28;655173;-72
2023/06/17 00:26:13;;;;;;;11.87;8.77;;;13.70;99.90;;;;;;4382404;28;656468;-73
2023/06/17 00:29:00;;;;;;;16.90;8.80;;;13.70;99.90;;;;;;4369765;28;655169;-73
2023/06/17 00:31:48;;;;;;;11.40;8.20;;;13.70;99.90;;;;;;4386113;28;656237;-72
2023/06/17 00:34:35;;;;;;;13.30;8.63;;;13.50;99.90;;;;;;4389686;28;655552;-72
2023/06/17 00:37:24;;;;;;;10.87;8.43;;;13.40;99.90;;;;;;4407282;28;656609;-72
2023/06/17 00:40:12;;;;;;;11.93;7.97;;;13.40;99.90;;;;;;4361733;28;655972;-72
2023/06/17 00:43:00;;;;;;;13.17;8.70;;;13.30;99.90;;;;;;4386352;27;655271;-71
2023/06/17 00:45:47;;;;;;;15.27;9.63;;;13.30;99.90;;;;;;4370076;28;656980;-71
2023/06/17 00:48:34;;;;;;;12.77;9.60;;;13.20;99.90;;;;;;4419642;28;655939;-72
2023/06/17 00:51:22;;;;;;;12.93;9.13;;;13.20;99.90;;;;;;4387840;28;657053;-72
2023/06/17 00:54:10;;;;;;;15.93;9.70;;;13.20;99.90;;;;;;4395732;28;655396;-71
2023/06/17 00:56:57;;;;;;;14.57;10.37;;;13.10;99.90;;;;;;4364616;28;656744;-72
2023/06/17 00:59:45;;;;;;;16.63;11.07;;;13.20;99.90;;;;;;4382205;28;656750;-73
2023/06/17 01:02:32;;;;;;;15.13;10.63;;;13.20;99.90;;;;;;4391048;28;657391;-72
2023/06/17 01:05:20;;;;;;;15.87;11.07;;;13.20;99.90;;;;;;4384103;28;656998;-73
2023/06/17 01:08:19;;;;;;;15.33;10.40;;;13.20;99.90;;;;;;4386214;28;658196;-72
2023/06/17 01:11:10;;;;;;;13.75;10.25;;;13.20;99.90;;;;;;4341368;28;658028;-72
2023/06/17 01:13:57;;;;;;;14.90;10.60;;;13.20;99.90;;;;;;4347939;28;657692;-72
2023/06/17 01:16:44;;;;;;;13.57;10.17;;;13.20;99.90;;;;;;4386919;28;656767;-72
2023/06/17 01:19:35;;;;;;;13.40;10.40;;;13.20;99.90;;;;;;4367717;28;657078;-72
2023/06/17 01:22:22;;;;;;;15.13;10.07;;;13.10;99.90;;;;;;4365045;28;657088;-71
2023/06/17 01:25:13;;;;;;;14.80;9.63;;;13.20;99.90;;;;;;4389024;28;656945;-72
2023/06/17 01:28:01;;;;;;;15.20;10.73;;;13.20;99.90;;;;;;4358391;28;655813;-73
2023/06/17 01:30:48;;;;;;;15.00;10.40;;;13.20;99.90;;;;;;4378311;28;656521;-73
2023/06/17 01:33:36;;;;;;;13.73;10.70;;;13.20;99.90;;;;;;4368960;28;657480;-73
2023/06/17 01:36:25;;;;;;;18.00;10.33;;;13.20;99.90;;;;;;4380147;28;656594;-72
2023/06/17 01:39:13;;;;;;;17.07;10.37;;;13.20;99.90;;;;;;4363439;28;657067;-72
2023/06/17 01:42:02;;;;;;;14.83;10.50;;;13.10;99.90;;;;;;4381069;28;657011;-73
2023/06/17 01:44:49;;;;;;;14.57;10.70;;;13.10;99.90;;;;;;4387453;28;656618;-72
2023/06/17 01:47:36;;;;;;;17.30;11.03;;;13.10;99.90;;;;;;4367717;28;657307;-72
2023/06/17 01:50:23;;;;;;;17.87;11.40;;;13.10;99.90;;;;;;4392122;28;657922;-73
2023/06/17 01:53:10;;;;;;;15.30;11.17;;;13.10;99.90;;;;;;4362213;28;656481;-73
2023/06/17 01:55:58;;;;;;;17.10;10.97;;;13.00;99.90;;;;;;4386478;28;657961;-72
2023/06/17 01:58:47;;;;;;;18.23;11.80;;;13.00;99.90;;;;;;4373423;28;656606;-72
2023/06/17 02:01:34;;;;;;;16.07;11.60;;;13.00;99.90;;;;;;4389950;28;656768;-72
2023/06/17 02:04:21;;;;;;;20.67;11.50;;;12.90;99.90;;;;;;4364871;28;656612;-72
2023/06/17 02:07:10;;;;;;;16.77;11.77;;;12.90;99.90;;;;;;4386334;28;658094;-71
2023/06/17 02:09:57;;;;;;;16.27;11.77;;;12.90;99.90;;;;;;4355434;28;658128;-71
2023/06/17 02:12:44;;;;;;;14.90;10.70;;;12.90;99.90;;;;;;4386415;28;656700;-72
2023/06/17 02:15:33;;;;;;;18.23;10.60;;;12.90;99.90;;;;;;4369326;28;656612;-72
2023/06/17 02:18:22;;;;;;;19.83;11.33;;;12.90;99.90;;;;;;4368211;28;656640;-72
2023/06/17 02:21:09;;;;;;;15.47;11.00;;;12.90;99.90;;;;;;4388801;28;657080;-73
2023/06/17 02:23:56;;;;;;;19.17;10.80;;;12.80;99.90;;;;;;4370007;28;657528;-73
2023/06/17 02:26:43;;;;;;;15.97;10.80;;;12.80;99.90;;;;;;4384274;28;657874;-72
2023/06/17 02:29:30;;;;;;;13.07;10.50;;;12.80;99.90;;;;;;4369698;28;656362;-72
2023/06/17 02:32:19;;;;;;;15.47;10.37;;;12.80;99.90;;;;;;4386687;28;657251;-73
2023/06/17 02:35:07;;;;;;;17.37;10.57;;;12.70;99.90;;;;;;4368567;28;656866;-72
2023/06/17 02:37:55;;;;;;;14.97;10.43;;;12.70;99.90;;;;;;4384114;28;656384;-72
2023/06/17 02:40:42;;;;;;;12.60;9.97;;;12.60;99.90;;;;;;4368155;28;656595;-72
2023/06/17 02:43:30;;;;;;;16.70;9.90;;;12.50;99.90;;;;;;4377627;28;655975;-72
2023/06/17 02:46:17;;;;;;;15.80;9.50;;;12.40;99.90;;;;;;4363916;28;657467;-72
2023/06/17 02:49:06;;;;;;;13.47;9.83;;;12.40;99.90;;;;;;4387040;28;655969;-72
2023/06/17 02:51:53;;;;;;;14.47;9.43;;;12.40;99.90;;;;;;4362796;28;657071;-71
2023/06/17 02:54:42;;;;;;;11.18;9.30;;;12.30;99.90;;;;;;4370032;28;655264;-73
2023/06/17 02:57:29;;;;;;;12.37;9.50;;;12.20;99.90;;;;;;4384745;28;655335;-72
2023/06/17 03:00:17;;;;;;;14.50;9.33;;;12.10;99.90;;;;;;4363069;28;655707;-73
2023/06/17 03:03:06;;;;;;;13.30;9.00;;;12.10;99.90;;;;;;4381153;28;655378;-72
2023/06/17 03:05:58;;;;;;;15.80;10.13;;;12.00;99.90;;;;;;4362349;28;657364;-72
2023/06/17 03:08:45;;;;;;;16.67;10.33;;;11.90;99.90;;;;;;4368353;28;658001;-73
2023/06/17 03:11:32;;;;;;;15.27;9.90;;;11.90;99.90;;;;;;4391871;28;656422;-72
2023/06/17 03:14:20;;;;;;;14.23;9.67;;;12.00;99.90;;;;;;4385432;28;655146;-72
2023/06/17 03:17:10;;;;;;;15.63;10.43;;;11.90;99.90;;;;;;4357917;28;656509;-72
2023/06/17 03:19:59;;;;;;;13.93;10.13;;;12.00;99.90;;;;;;4360490;28;657098;-72
2023/06/17 03:22:48;;;;;;;15.18;10.77;;;12.00;99.90;;;;;;4360741;28;656377;-72
2023/06/17 03:25:35;;;;;;;14.63;10.43;;;12.10;99.90;;;;;;4364043;28;656864;-72
2023/06/17 03:28:22;;;;;;;15.73;10.93;;;12.00;99.90;;;;;;4384924;28;657707;-72
2023/06/17 03:31:10;;;;;;;15.30;10.60;;;12.10;99.90;;;;;;4387721;28;657074;-72
2023/06/17 03:33:58;;;;;;;16.83;11.43;;;12.10;99.90;;;;;;4359538;28;657071;-73
2023/06/17 03:36:47;;;;;;;18.05;11.90;;;12.20;99.90;;;;;;4366123;28;657310;-72
2023/06/17 03:39:35;;;;;;;13.67;10.40;;;12.10;99.90;;;;;;4383677;28;657741;-72
2023/06/17 03:42:22;;;;;;;14.53;10.87;;;12.20;99.90;;;;;;4362569;28;657887;-72
2023/06/17 03:45:11;;;;;;;16.17;12.40;;;12.10;99.90;;;;;;4377740;28;657452;-73
2023/06/17 03:47:58;;;;;;;19.37;12.83;;;12.20;99.90;;;;;;4386546;28;656615;-72
2023/06/17 03:50:46;;;;;;;20.27;12.23;;;12.20;99.90;;;;;;4365995;28;656855;-73
2023/06/17 03:53:33;;;;;;;16.97;12.00;;;12.10;99.90;;;;;;4384556;28;657362;-72
2023/06/17 03:56:22;;;;;;;16.17;11.63;;;12.10;99.90;;;;;;4367954;28;656966;-72
2023/06/17 03:59:10;;;;;;;18.63;12.40;;;12.20;99.90;;;;;;4385003;28;657025;-72
2023/06/17 04:01:59;;;;;;;16.83;12.23;;;12.10;99.90;;;;;;4359205;28;656754;-72
2023/06/17 04:04:46;;;;;;;16.30;12.23;;;12.10;99.90;;;;;;4364923;28;657457;-72
2023/06/17 04:07:34;;;;;;;21.53;13.40;;;12.10;99.90;;;;;;4383327;28;657520;-71
2023/06/17 04:10:21;;;;;;;22.23;15.37;;;12.00;99.90;;;;;;4358086;28;661002;-73
2023/06/17 04:13:10;;;;;;;24.33;17.80;;;12.10;99.90;;;;;;4384110;28;656724;-72
2023/06/17 04:15:57;;;;;;;24.20;16.70;;;12.10;99.90;;;;;;4358650;28;656759;-73
2023/06/17 04:18:45;;;;;;;22.63;17.13;;;12.10;99.90;;;;;;4383674;28;656541;-72
2023/06/17 04:21:32;;;;;;;25.40;17.50;;;12.20;99.90;;;;;;4361674;28;656817;-73
2023/06/17 04:24:19;;;;;;;24.13;18.13;;;12.30;99.90;;;;;;4388647;28;657040;-73
2023/06/17 04:27:08;;;;;;;28.70;18.50;;;12.20;99.90;;;;;;4365810;28;657176;-72
2023/06/17 04:29:57;;;;;;;30.07;20.40;;;12.20;99.90;;;;;;4367046;28;656640;-72
2023/06/17 04:32:44;;;;;;;31.23;19.53;;;12.10;99.90;;;;;;4370604;28;656718;-72
2023/06/17 04:35:32;;;;;;;37.70;22.40;;;12.00;99.90;;;;;;4355868;28;657540;-72
2023/06/17 04:38:20;;;;;;;34.07;22.57;;;11.90;99.90;;;;;;4384438;28;656577;-72
2023/06/17 04:41:08;;;;;;;33.10;23.30;;;12.00;99.90;;;;;;4360943;28;657910;-73
2023/06/17 04:43:55;;;;;;;37.83;25.10;;;12.00;99.90;;;;;;4360944;28;656695;-73
2023/06/17 04:46:45;;;;;;;41.23;25.50;;;12.10;99.90;;;;;;4386687;28;657695;-72
2023/06/17 04:49:41;;;;;;;42.00;26.17;;;12.10;99.90;;;;;;4361946;28;657953;-72
2023/06/17 04:52:30;;;;;;;49.53;31.00;;;12.10;99.90;;;;;;4366193;28;657835;-73
2023/06/17 04:55:18;;;;;;;44.73;28.37;;;12.20;99.90;;;;;;4354940;28;657992;-74
2023/06/17 04:58:05;;;;;;;46.27;28.70;;;12.30;99.90;;;;;;4361531;28;656475;-72
2023/06/17 05:00:52;;;;;;;47.07;29.20;;;12.20;99.90;;;;;;4385782;28;657787;-73
2023/06/17 05:03:42;;;;;;;53.47;30.37;;;12.30;99.90;;;;;;4385903;28;656621;-73
2023/06/17 05:06:29;;;;;;;50.43;29.33;;;12.40;99.90;;;;;;4391458;28;656429;-72
2023/06/17 05:09:16;;;;;;;50.23;28.40;;;12.40;99.90;;;;;;4365156;28;657215;-73
2023/06/17 05:12:04;;;;;;;46.70;28.83;;;12.40;99.90;;;;;;4377757;28;657351;-72
2023/06/17 05:14:51;;;;;;;51.30;28.97;;;12.60;99.90;;;;;;4363757;28;657127;-72
2023/06/17 05:17:38;;;;;;;50.93;30.70;;;12.70;99.90;;;;;;4385888;28;656982;-73
2023/06/17 05:20:27;;;;;;;42.50;28.43;;;12.80;99.90;;;;;;4367673;28;657082;-72
2023/06/17 05:23:14;;;;;;;45.27;28.60;;;12.80;99.90;;;;;;4383487;28;656814;-72
2023/06/17 05:26:01;;;;;;;41.87;27.40;;;12.90;99.90;;;;;;4369562;28;656326;-72
2023/06/17 05:28:48;;;;;;;46.28;27.77;;;12.90;99.90;;;;;;4378193;28;657918;-71
2023/06/17 05:31:36;;;;;;;51.57;28.73;;;12.70;99.90;;;;;;4367299;28;656760;-72
2023/06/17 05:34:23;;;;;;;50.30;27.87;;;12.80;99.90;;;;;;4392186;28;656857;-71
2023/06/17 05:37:13;;;;;;;44.80;26.90;;;12.70;99.90;;;;;;4368644;28;657155;-72
2023/06/17 05:40:00;;;;;;;51.57;29.87;;;12.70;99.90;;;;;;4364974;28;656449;-72
2023/06/17 05:42:48;;;;;;;48.03;28.83;;;12.90;99.90;;;;;;4389908;28;657446;-71
2023/06/17 05:45:35;;;;;;;57.60;31.00;;;12.90;99.90;;;;;;4364645;28;658159;-72
2023/06/17 05:48:22;;;;;;;55.30;31.40;;;13.20;99.90;;;;;;4390527;28;656650;-72
2023/06/17 05:51:09;;;;;;;56.17;31.93;;;13.40;99.90;;;;;;4386075;28;656949;-72
2023/06/17 05:53:58;;;;;;;54.17;30.90;;;13.30;99.90;;;;;;4366904;28;657204;-72
2023/06/17 05:56:45;;;;;;;47.83;27.00;;;13.40;99.90;;;;;;4365256;28;657256;-74
2023/06/17 05:59:33;;;;;;;53.10;30.40;;;13.60;99.90;;;;;;4384362;28;657516;-71
2023/06/17 06:02:20;;;;;;;55.90;32.37;;;13.70;99.90;;;;;;4363792;28;656697;-73
2023/06/17 06:05:08;;;;;;;47.80;28.23;;;13.80;99.90;;;;;;4380668;28;657606;-72
2023/06/17 06:07:55;;;;;;;56.43;29.27;;;13.90;99.90;;;;;;4362389;28;656748;-73
2023/06/17 06:10:44;;;;;;;45.60;27.53;;;14.10;99.90;;;;;;4386302;28;658218;-72
2023/06/17 06:13:31;;;;;;;58.77;33.80;;;14.40;99.90;;;;;;4365720;28;657021;-72
2023/06/17 06:16:18;;;;;;;54.23;30.57;;;14.20;99.90;;;;;;4375559;28;657591;-73
2023/06/17 06:19:06;;;;;;;57.90;32.30;;;14.30;99.90;;;;;;4365634;28;656567;-71
2023/06/17 06:21:53;;;;;;;59.73;32.10;;;14.30;99.90;;;;;;4388032;28;656861;-72
2023/06/17 06:24:40;;;;;;;56.30;31.38;;;14.30;99.90;;;;;;4373027;28;656988;-72
2023/06/17 06:27:29;;;;;;;53.83;31.37;;;14.50;99.90;;;;;;4383668;28;657874;-71
2023/06/17 06:30:16;;;;;;;52.53;30.13;;;14.60;99.90;;;;;;4367624;28;656642;-72
2023/06/17 06:33:04;;;;;;;53.67;31.60;;;14.70;99.90;;;;;;4381804;28;657207;-72
2023/06/17 06:35:51;;;;;;;49.90;28.77;;;14.50;99.90;;;;;;4365861;28;657427;-72
2023/06/17 06:38:38;;;;;;;43.67;26.60;;;14.80;99.90;;;;;;4385147;28;656730;-72
2023/06/17 06:41:25;;;;;;;47.23;26.30;;;15.10;99.90;;;;;;4364891;28;656859;-73
2023/06/17 06:44:14;;;;;;;50.23;27.57;;;15.10;99.90;;;;;;4383105;28;657917;-74
2023/06/17 06:47:01;;;;;;;49.67;27.93;;;15.10;99.90;;;;;;4361841;28;656534;-72
2023/06/17 06:49:48;;;;;;;45.57;26.07;;;15.10;99.90;;;;;;4386502;28;657845;-74
2023/06/17 06:52:36;;;;;;;47.33;28.20;;;15.40;99.90;;;;;;4357452;28;656805;-72
2023/06/17 06:55:23;;;;;;;43.50;25.50;;;15.70;99.90;;;;;;4376795;28;657725;-71
2023/06/17 06:58:10;;;;;;;54.10;24.37;;;15.70;99.90;;;;;;4363381;28;656628;-73
2023/06/17 07:00:59;;;;;;;40.83;24.97;;;15.80;99.90;;;;;;4378704;28;657964;-70
2023/06/17 07:03:46;;;;;;;43.50;26.03;;;15.90;99.90;;;;;;4365493;28;657764;-73
2023/06/17 07:06:33;;;;;;;34.43;20.33;;;16.10;99.90;;;;;;4382120;28;657872;-77
2023/06/17 07:09:21;;;;;;;40.20;22.27;;;16.20;99.90;;;;;;4362268;28;656855;-76
2023/06/17 07:12:08;;;;;;;39.70;22.23;;;15.90;99.90;;;;;;4411260;28;657197;-71
2023/06/17 07:14:55;;;;;;;36.73;22.87;;;15.90;99.90;;;;;;4359977;28;656760;-71
2023/06/17 07:17:44;;;;;;;37.47;21.73;;;16.20;99.90;;;;;;4384553;28;656697;-71
2023/06/17 07:20:31;;;;;;;35.60;21.53;;;16.50;99.90;;;;;;4363354;28;657359;-71
2023/06/17 07:23:18;;;;;;;32.17;20.95;;;17.10;99.90;;;;;;4386729;28;658333;-71
2023/06/17 07:26:06;;;;;;;31.00;19.13;;;17.30;99.90;;;;;;4364719;28;656528;-71
2023/06/17 07:28:55;;;;;;;37.27;19.63;;;17.60;99.90;;;;;;4382673;28;658392;-75
2023/06/17 07:31:42;;;;;;;29.87;16.93;;;17.00;99.90;;;;;;4357856;28;657528;-74
2023/06/17 07:34:31;;;;;;;30.83;16.87;;;16.80;99.90;;;;;;4392385;28;657354;-75
2023/06/17 07:37:18;;;;;;;29.30;18.57;;;17.10;99.90;;;;;;4367708;28;657673;-75
2023/06/17 07:40:07;;;;;;;30.20;18.63;;;17.30;99.90;;;;;;4363641;28;656418;-72
2023/06/17 07:42:54;;;;;;;31.07;17.33;;;17.00;99.90;;;;;;4389912;28;656959;-70
2023/06/17 07:45:41;;;;;;;27.20;17.57;;;17.10;99.90;;;;;;4368644;28;657701;-69
2023/06/17 07:48:28;;;;;;;22.43;14.93;;;17.20;99.90;;;;;;4386439;28;656929;-72
2023/06/17 07:51:17;;;;;;;26.33;15.13;;;17.80;99.90;;;;;;4356755;28;657038;-70
2023/06/17 07:54:05;;;;;;;25.23;15.40;;;17.90;99.90;;;;;;4380394;28;656841;-72
2023/06/17 07:56:52;;;;;;;23.77;15.33;;;18.10;99.90;;;;;;4361779;28;657561;-71
2023/06/17 07:59:40;;;;;;;24.47;15.10;;;18.10;99.90;;;;;;4387028;28;657123;-72
2023/06/17 08:02:28;;;;;;;27.90;15.37;;;18.40;99.90;;;;;;4361205;28;656770;-70
2023/06/17 08:05:15;;;;;;;28.57;16.87;;;18.20;99.90;;;;;;4366415;28;656493;-73
2023/06/17 08:08:04;;;;;;;25.90;16.07;;;18.40;99.90;;;;;;4380321;28;657525;-71
2023/06/17 08:10:51;;;;;;;29.00;16.40;;;18.50;99.90;;;;;;4359394;28;657164;-70
2023/06/17 08:13:39;;;;;;;27.67;17.70;;;18.70;99.90;;;;;;4382741;28;657978;-72
2023/06/17 08:16:26;;;;;;;27.50;18.30;;;18.30;99.90;;;;;;4361776;28;658556;-71
2023/06/17 08:19:13;;;;;;;26.93;16.60;;;18.40;99.90;;;;;;4379936;28;658312;-71
2023/06/17 08:22:00;;;;;;;18.83;14.03;;;19.20;99.90;;;;;;4364608;28;658082;-73
2023/06/17 08:24:49;;;;;;;26.50;16.10;;;19.90;99.90;;;;;;4379996;28;658770;-76
2023/06/17 08:27:37;;;;;;;23.63;15.53;;;19.50;99.90;;;;;;4356491;28;657709;-76
2023/06/17 08:30:25;;;;;;;25.43;14.30;;;19.30;99.90;;;;;;4382884;28;657025;-75
2023/06/17 08:33:12;;;;;;;20.23;13.60;;;19.50;99.90;;;;;;4356050;28;657898;-76
2023/06/17 08:36:00;;;;;;;18.97;13.80;;;20.00;99.90;;;;;;4372777;28;657574;-77
2023/06/17 08:38:47;;;;;;;20.63;13.43;;;20.40;99.90;;;;;;4378149;28;659260;-75
2023/06/17 08:41:38;;;;;;;22.10;12.40;;;20.60;99.90;;;;;;4374937;28;660208;-76
2023/06/17 08:44:26;;;;;;;18.27;12.53;;;20.10;99.90;;;;;;4370649;28;657601;-72
2023/06/17 08:47:15;;;;;;;19.97;12.37;;;19.20;99.90;;;;;;4383231;28;658331;-73
2023/06/17 08:50:02;;;;;;;22.80;12.53;;;19.30;99.90;;;;;;4381153;28;659009;-70
2023/06/17 08:52:50;;;;;;;17.03;11.50;;;19.40;99.90;;;;;;4385998;28;657772;-73
2023/06/17 08:55:38;;;;;;;16.13;12.10;;;19.70;99.90;;;;;;4387369;28;658989;-71
2023/06/17 08:58:27;;;;;;;15.40;10.33;;;19.90;99.90;;;;;;4368452;28;658428;-71
2023/06/17 09:01:14;;;;;;;15.90;10.57;;;20.10;99.90;;;;;;4387711;28;657677;-72
2023/06/17 09:04:01;;;;;;;14.20;9.43;;;20.70;99.90;;;;;;4358210;28;657653;-72
2023/06/17 09:06:48;;;;;;;14.60;9.27;;;21.20;99.90;;;;;;4385715;28;656955;-70
2023/06/17 09:09:36;;;;;;;17.83;9.67;;;20.80;99.90;;;;;;4367542;28;657205;-73
2023/06/17 09:12:24;;;;;;;13.23;9.37;;;20.00;99.90;;;;;;4388176;28;657802;-74
2023/06/17 09:15:17;;;;;;;11.37;8.57;;;20.60;99.90;;;;;;4357624;28;656912;-72
2023/06/17 09:18:04;;;;;;;13.33;8.93;;;20.70;99.90;;;;;;4360689;28;657422;-71
2023/06/17 09:20:55;;;;;;;12.30;8.20;;;21.30;99.90;;;;;;4363530;28;657168;-70
2023/06/17 09:23:42;;;;;;;10.40;7.57;;;21.60;99.90;;;;;;4364812;28;656650;-70
2023/06/17 09:26:30;;;;;;;13.63;9.93;;;22.10;99.90;;;;;;4384782;28;657025;-72
2023/06/17 09:29:18;;;;;;;11.17;7.70;;;21.90;99.90;;;;;;4360494;28;657764;-71
2023/06/17 09:32:07;;;;;;;12.53;8.70;;;21.50;99.90;;;;;;4364457;28;657131;-75
2023/06/17 09:34:55;;;;;;;14.70;8.30;;;21.10;99.90;;;;;;4389560;28;657216;-75
2023/06/17 09:37:44;;;;;;;8.77;7.25;;;21.70;99.90;;;;;;4359369;28;657530;-70
2023/06/17 09:40:33;;;;;;;10.97;6.83;;;21.50;99.90;;;;;;4367588;28;656088;-70
2023/06/17 09:43:20;;;;;;;9.13;7.10;;;21.00;99.90;;;;;;4368950;28;657150;-71
2023/06/17 09:46:08;;;;;;;10.37;8.70;;;21.10;99.90;;;;;;4378491;28;656760;-70
2023/06/17 09:48:57;;;;;;;10.70;7.90;;;20.30;99.90;;;;;;4360088;28;656852;-70
2023/06/17 09:51:47;;;;;;;13.67;8.07;;;19.70;99.90;;;;;;4388397;28;656226;-71
2023/06/17 09:54:34;;;;;;;12.13;8.00;;;20.40;99.90;;;;;;4356662;28;657010;-72
2023/06/17 09:57:21;;;;;;;12.93;8.40;;;21.10;99.90;;;;;;4363933;28;656773;-71
2023/06/17 10:00:11;;;;;;;10.60;7.70;;;21.30;99.90;;;;;;4385119;28;657009;-70
2023/06/17 10:03:00;;;;;;;10.23;8.30;;;21.80;99.90;;;;;;4360998;28;657167;-71
2023/06/17 10:05:53;;;;;;;10.77;7.10;;;21.70;99.90;;;;;;4352254;28;657814;-71
2023/06/17 10:08:42;;;;;;;8.97;7.03;;;22.10;99.90;;;;;;4361209;28;657170;-72
2023/06/17 10:11:30;;;;;;;11.57;7.60;;;22.00;99.90;;;;;;4383067;28;656666;-72
2023/06/17 10:14:20;;;;;;;11.03;8.43;;;21.90;99.90;;;;;;4382902;28;656410;-71
2023/06/17 10:17:09;;;;;;;14.63;9.90;;;21.60;99.90;;;;;;4352856;28;658318;-70
2023/06/17 10:19:56;;;;;;;11.07;7.93;;;21.80;99.90;;;;;;4363223;28;657204;-71
2023/06/17 10:22:45;;;;;;;9.23;7.43;;;22.20;99.90;;;;;;4382364;28;657482;-75
2023/06/17 10:25:35;;;;;;;9.57;7.43;;;23.10;99.90;;;;;;4354080;28;656825;-73
2023/06/17 10:28:22;;;;;;;8.00;6.50;;;23.00;99.90;;;;;;4365305;28;656004;-72
2023/06/17 10:31:21;;;;;;;10.03;7.63;;;23.10;99.90;;;;;;4384938;28;655899;-70
2023/06/17 10:34:09;;;;;;;11.03;7.27;;;22.40;99.90;;;;;;4367652;28;657127;-71
2023/06/17 10:37:00;;;;;;;10.93;7.20;;;21.90;99.90;;;;;;4362427;28;656094;-70
2023/06/17 10:39:54;;;;;;;11.03;7.33;;;21.00;99.90;;;;;;4367133;28;657894;-71
2023/06/17 10:42:41;;;;;;;13.97;7.83;;;20.80;99.90;;;;;;4359512;28;658304;-72
2023/06/17 10:45:30;;;;;;;9.87;7.83;;;21.00;99.90;;;;;;4384746;28;659466;-72
2023/06/17 10:48:17;;;;;;;9.73;7.73;;;21.10;99.90;;;;;;4361159;28;657769;-68
2023/06/17 10:51:09;;;;;;;11.20;7.40;;;21.40;99.90;;;;;;4382515;28;656785;-71
2023/06/17 10:53:56;;;;;;;8.93;6.60;;;21.70;99.90;;;;;;4363626;28;656793;-71
2023/06/17 10:56:53;;;;;;;9.03;6.17;;;22.10;99.90;;;;;;4384764;28;655509;-71
2023/06/17 10:59:41;;;;;;;9.70;5.90;;;22.40;99.90;;;;;;4334677;28;656980;-72
2023/06/17 11:02:28;;;;;;;12.20;6.30;;;23.10;98.70;;;;;;4381022;28;656169;-71
2023/06/17 11:05:16;;;;;;;9.33;6.20;;;22.70;93.40;;;;;;4356445;28;656811;-73
2023/06/17 11:08:04;;;;;;;6.83;6.10;;;22.80;97.40;;;;;;4388059;28;656802;-71
2023/06/17 11:10:51;;;;;;;8.13;6.03;;;22.70;96.20;;;;;;4364745;28;655524;-73
2023/06/17 11:13:41;;;;;;;8.60;6.40;;;22.60;98.40;;;;;;4388316;28;656334;-72
2023/06/17 11:16:29;;;;;;;9.20;5.47;;;22.30;97.00;;;;;;4364558;28;655872;-70
2023/06/17 11:19:16;;;;;;;8.47;5.50;;;22.40;93.50;;;;;;4370209;28;655668;-72
2023/06/17 11:22:03;;;;;;;9.17;5.70;;;22.60;90.50;;;;;;4376512;28;656064;-71
2023/06/17 11:24:51;;;;;;;8.47;5.70;;;22.90;92.00;;;;;;4362505;28;655436;-72
2023/06/17 11:27:40;;;;;;;8.23;5.40;;;23.10;88.70;;;;;;4384614;28;656391;-71
2023/06/17 11:30:29;;;;;;;8.87;5.40;;;23.10;90.60;;;;;;4365673;28;656331;-72
2023/06/17 11:33:19;;;;;;;6.73;4.90;;;23.60;87.50;;;;;;4363234;28;655579;-72
2023/06/17 11:36:09;;;;;;;8.43;5.70;;;23.60;81.50;;;;;;4361461;28;655381;-71
2023/06/17 11:38:56;;;;;;;7.30;5.40;;;23.70;80.20;;;;;;4349905;28;655444;-74
2023/06/17 11:41:44;;;;;;;8.20;5.60;;;24.00;77.40;;;;;;4382046;28;655620;-77
2023/06/17 11:44:31;;;;;;;7.03;5.38;;;23.80;84.00;;;;;;4364798;28;655806;-74
2023/06/17 11:47:21;;;;;;;7.13;5.60;;;23.50;86.50;;;;;;4382711;28;656192;-71
2023/06/17 11:50:09;;;;;;;9.35;5.63;;;23.30;88.70;;;;;;4357779;28;655594;-74
2023/06/17 11:52:57;;;;;;;10.77;5.70;;;23.40;89.80;;;;;;4361451;28;656107;-72
2023/06/17 11:55:45;;;;;;;7.03;5.57;;;23.00;83.40;;;;;;4380995;28;656050;-72
2023/06/17 11:58:32;;;;;;;7.63;5.17;;;23.20;89.70;;;;;;4350646;28;655994;-72
2023/06/17 12:01:24;;;;;;;8.97;5.10;;;23.90;89.00;;;;;;4379682;28;655891;-71
2023/06/17 12:04:13;;;;;;;8.50;4.72;;;24.60;86.10;;;;;;4363743;28;657365;-72
2023/06/17 12:07:00;;;;;;;7.32;4.95;;;24.60;79.00;;;;;;4376855;28;655681;-72
2023/06/17 12:09:51;;;;;;;6.53;4.78;;;25.40;82.00;;;;;;4380392;28;656426;-73
2023/06/17 12:12:40;;;;;;;4.93;4.43;;;25.30;74.40;;;;;;4360281;28;655374;-73
2023/06/17 12:15:29;;;;;;;11.57;4.80;;;24.90;79.90;;;;;;4361066;28;655845;-71
2023/06/17 12:18:16;;;;;;;7.45;4.40;;;25.00;77.90;;;;;;4361883;28;657545;-75
2023/06/17 12:21:11;;;;;;;6.10;4.72;;;24.70;75.60;;;;;;4388216;28;656104;-72
2023/06/17 12:23:58;;;;;;;7.45;4.80;;;23.10;81.90;;;;;;4363351;28;655718;-72
2023/06/17 12:26:46;;;;;;;6.00;4.53;;;23.10;83.90;;;;;;4368024;28;655990;-73
2023/06/17 12:29:33;;;;;;;5.53;4.77;;;23.20;85.80;;;;;;4383320;28;655709;-73
2023/06/17 12:32:20;;;;;;;8.20;4.30;;;23.40;84.90;;;;;;4371418;28;655819;-72
2023/06/17 12:35:09;;;;;;;8.73;4.17;;;23.30;76.60;;;;;;4382208;28;656855;-72
2023/06/17 12:37:58;;;;;;;7.27;4.47;;;22.40;84.20;;;;;;4359520;28;656676;-74
2023/06/17 12:40:45;;;;;;;6.17;4.37;;;22.00;90.40;;;;;;4367678;28;655885;-73
2023/06/17 12:43:33;;;;;;;14.53;4.30;;;22.50;91.20;;;;;;4385670;28;656734;-72
2023/06/17 12:46:20;;;;;;;4.80;4.20;;;22.50;92.50;;;;;;4367362;28;656975;-73
2023/06/17 12:49:08;;;;;;;4.67;4.00;;;23.40;91.70;;;;;;4381279;28;656987;-72
2023/06/17 12:51:55;;;;;;;10.00;4.23;;;23.90;90.50;;;;;;4373629;28;655314;-73
2023/06/17 12:54:44;;;;;;;7.43;4.30;;;23.80;85.50;;;;;;4380685;28;657587;-75
2023/06/17 12:57:32;;;;;;;4.87;3.80;;;23.30;83.40;;;;;;4362859;28;655477;-73
2023/06/17 13:00:19;;;;;;;5.30;3.90;;;22.70;84.50;;;;;;4383085;28;654758;-75
2023/06/17 13:03:07;;;;;;;5.30;3.77;;;22.20;86.60;;;;;;4363734;28;655168;-74
2023/06/17 13:05:54;;;;;;;4.50;3.63;;;21.80;89.70;;;;;;4383584;28;655624;-72
2023/06/17 13:08:41;;;;;;;5.83;3.83;;;21.40;89.40;;;;;;4363092;28;655525;-72
2023/06/17 13:11:30;;;;;;;5.20;3.40;;;21.60;91.30;;;;;;4379932;28;656507;-73
2023/06/17 13:14:18;;;;;;;5.00;3.70;;;21.60;92.10;;;;;;4361358;28;656640;-72
2023/06/17 13:17:06;;;;;;;5.50;3.90;;;21.80;91.50;;;;;;4365912;28;655632;-73
2023/06/17 13:19:53;;;;;;;5.73;3.80;;;21.90;90.90;;;;;;4404695;28;657060;-71
2023/06/17 13:22:41;;;;;;;4.13;3.30;;;22.00;91.20;;;;;;4369039;28;655782;-71
2023/06/17 13:25:29;;;;;;;6.67;3.33;;;22.80;91.30;;;;;;4384567;28;656095;-72
2023/06/17 13:28:19;;;;;;;6.00;3.70;;;23.30;87.30;;;;;;4364212;28;658131;-72
2023/06/17 13:31:06;;;;;;;3.73;3.33;;;24.10;84.80;;;;;;4362928;28;655762;-72
2023/06/17 13:33:53;;;;;;;3.90;3.27;;;24.70;76.20;;;;;;4377057;28;656659;-71
2023/06/17 13:36:42;;;;;;;5.03;3.55;;;24.10;73.00;;;;;;4364291;28;655254;-72
2023/06/17 13:39:29;;;;;;;11.43;3.80;;;24.10;77.20;;;;;;4377718;28;656069;-73
2023/06/17 13:42:17;;;;;;;5.20;3.20;;;24.50;75.80;;;;;;4366366;28;656563;-72
2023/06/17 13:45:07;;;;;;;3.17;2.92;;;24.60;72.20;;;;;;4374428;28;656126;-72
2023/06/17 13:47:54;;;;;;;5.43;3.17;;;25.00;68.20;;;;;;4368452;28;655759;-73
2023/06/17 13:50:42;;;;;;;4.25;3.40;;;25.10;68.30;;;;;;4365392;28;655867;-73
2023/06/17 13:53:30;;;;;;;5.20;3.80;;;24.70;65.40;;;;;;4385995;28;656144;-72
2023/06/17 13:56:18;;;;;;;6.40;3.60;;;23.80;68.80;;;;;;4359604;28;657230;-71
2023/06/17 13:59:05;;;;;;;3.28;2.97;;;23.80;65.80;;;;;;4367719;28;655416;-72
2023/06/17 14:01:54;;;;;;;3.75;3.15;;;23.80;69.40;;;;;;4383599;28;656120;-72
2023/06/17 14:04:42;;;;;;;4.82;3.17;;;24.00;70.80;;;;;;4369330;28;655905;-73
2023/06/17 14:07:29;;;;;;;4.80;3.42;;;24.20;67.00;;;;;;4385210;28;655700;-73